sensor_id;sensor_type;location;lat;lon;timestamp;pressure;altitude;pressure_sealevel;temperature;humidity
5455;BME280;2750;49.050;9.250;2024-01-15T00:01:36;97811.59;;;0.82;84.37
5455;BME280;2750;49.050;9.250;2024-01-15T00:06:39;97824.31;;;0.84;85.08
5455;BME280;2750;49.050;9.250;2024-01-15T00:11:40;97810.91;;;0.76;85.16
5455;BME280;2750;49.050;9.250;2024-01-15T00:16:42;97815.47;;;0.97;84.35
5455;BME280;2750;49.050;9.250;2024-01-15T00:21:45;97801.31;;;0.85;83.98
5455;BME280;2750;49.050;9.250;2024-01-15T00:26:46;97797.56;;;0.65;84.26
5455;BME280;2750;49.050;9.250;2024-01-15T00:31:48;97793.91;;;1.09;82.82
5455;BME280;2750;49.050;9.250;2024-01-15T00:36:50;97785.41;;;1.08;82.37
5455;BME280;2750;49.050;9.250;2024-01-15T00:41:52;97777.97;;;0.65;84.23
5455;BME280;2750;49.050;9.250;2024-01-15T00:46:53;97777.53;;;0.48;84.46
5455;BME280;2750;49.050;9.250;2024-01-15T00:51:56;97764.25;;;0.69;84.13
5455;BME280;2750;49.050;9.250;2024-01-15T00:56:58;97750.06;;;0.93;84.24
5455;BME280;2750;49.050;9.250;2024-01-15T01:01:59;97750.41;;;1.13;83.36
5455;BME280;2750;49.050;9.250;2024-01-15T01:07:02;97749.28;;;0.91;83.90
5455;BME280;2750;49.050;9.250;2024-01-15T01:12:04;97734.63;;;0.98;84.00
5455;BME280;2750;49.050;9.250;2024-01-15T01:17:06;97742.66;;;0.84;85.15
5455;BME280;2750;49.050;9.250;2024-01-15T01:22:08;97727.66;;;0.70;85.72
5455;BME280;2750;49.050;9.250;2024-01-15T01:27:10;97729.53;;;0.64;86.72
5455;BME280;2750;49.050;9.250;2024-01-15T01:32:11;97725.72;;;0.80;85.46
5455;BME280;2750;49.050;9.250;2024-01-15T01:37:14;97719.94;;;1.07;85.42
5455;BME280;2750;49.050;9.250;2024-01-15T01:42:16;97721.56;;;1.08;84.43
5455;BME280;2750;49.050;9.250;2024-01-15T01:47:18;97736.78;;;0.80;85.65
5455;BME280;2750;49.050;9.250;2024-01-15T01:52:21;97737.47;;;0.87;85.18
5455;BME280;2750;49.050;9.250;2024-01-15T01:57:23;97748.47;;;0.89;84.99
5455;BME280;2750;49.050;9.250;2024-01-15T02:02:25;97742.09;;;1.05;84.56
5455;BME280;2750;49.050;9.250;2024-01-15T02:07:28;97735.53;;;1.27;84.09
5455;BME280;2750;49.050;9.250;2024-01-15T02:12:29;97741.59;;;1.54;83.75
5455;BME280;2750;49.050;9.250;2024-01-15T02:17:31;97754.25;;;1.28;83.34
5455;BME280;2750;49.050;9.250;2024-01-15T02:22:34;97745.19;;;1.16;83.54
5455;BME280;2750;49.050;9.250;2024-01-15T02:27:37;97736.88;;;1.10;84.36
5455;BME280;2750;49.050;9.250;2024-01-15T02:32:38;97734.13;;;1.17;84.79
5455;BME280;2750;49.050;9.250;2024-01-15T02:37:40;97747.00;;;1.13;84.19
5455;BME280;2750;49.050;9.250;2024-01-15T02:42:42;97740.63;;;1.29;84.08
5455;BME280;2750;49.050;9.250;2024-01-15T02:47:44;97746.22;;;1.72;82.69
5455;BME280;2750;49.050;9.250;2024-01-15T02:52:45;97742.03;;;1.70;82.75
5455;BME280;2750;49.050;9.250;2024-01-15T02:57:48;97740.34;;;1.69;82.55
5455;BME280;2750;49.050;9.250;2024-01-15T03:02:51;97735.41;;;2.20;82.19
5455;BME280;2750;49.050;9.250;2024-01-15T03:07:52;97734.91;;;2.09;81.81
5455;BME280;2750;49.050;9.250;2024-01-15T03:12:55;97735.94;;;2.03;82.96
5455;BME280;2750;49.050;9.250;2024-01-15T03:17:57;97726.91;;;1.91;82.59
5455;BME280;2750;49.050;9.250;2024-01-15T03:22:58;97719.03;;;1.99;82.56
5455;BME280;2750;49.050;9.250;2024-01-15T03:28:01;97725.34;;;1.87;82.94
5455;BME280;2750;49.050;9.250;2024-01-15T03:33:03;97728.56;;;1.92;83.49
5455;BME280;2750;49.050;9.250;2024-01-15T03:38:04;97726.75;;;1.96;82.19
5455;BME280;2750;49.050;9.250;2024-01-15T03:43:07;97729.47;;;2.19;82.09
5455;BME280;2750;49.050;9.250;2024-01-15T03:48:08;97728.44;;;1.97;81.99
5455;BME280;2750;49.050;9.250;2024-01-15T03:53:10;97714.63;;;1.75;83.20
5455;BME280;2750;49.050;9.250;2024-01-15T03:58:13;97700.22;;;1.72;83.71
5455;BME280;2750;49.050;9.250;2024-01-15T04:03:15;97688.63;;;1.61;83.39
5455;BME280;2750;49.050;9.250;2024-01-15T04:08:17;97694.28;;;1.70;83.43
5455;BME280;2750;49.050;9.250;2024-01-15T04:13:20;97679.00;;;1.69;83.16
5455;BME280;2750;49.050;9.250;2024-01-15T04:18:21;97666.38;;;1.64;84.02
5455;BME280;2750;49.050;9.250;2024-01-15T04:23:23;97664.72;;;1.91;83.50
5455;BME280;2750;49.050;9.250;2024-01-15T04:28:25;97660.78;;;2.07;83.49
5455;BME280;2750;49.050;9.250;2024-01-15T04:33:27;97678.50;;;1.85;83.19
5455;BME280;2750;49.050;9.250;2024-01-15T04:38:28;97677.16;;;1.44;84.12
5455;BME280;2750;49.050;9.250;2024-01-15T04:43:31;97679.81;;;1.41;85.07
5455;BME280;2750;49.050;9.250;2024-01-15T04:48:33;97668.63;;;2.03;84.46
5455;BME280;2750;49.050;9.250;2024-01-15T04:53:34;97655.50;;;1.85;84.07
5455;BME280;2750;49.050;9.250;2024-01-15T04:58:37;97662.16;;;1.91;84.16
5455;BME280;2750;49.050;9.250;2024-01-15T05:03:39;97647.22;;;2.05;83.97
5455;BME280;2750;49.050;9.250;2024-01-15T05:08:40;97660.75;;;2.09;83.36
5455;BME280;2750;49.050;9.250;2024-01-15T05:13:43;97653.28;;;1.75;84.12
5455;BME280;2750;49.050;9.250;2024-01-15T05:18:44;97653.81;;;1.84;84.49
5455;BME280;2750;49.050;9.250;2024-01-15T05:23:46;97665.13;;;2.05;83.62
5455;BME280;2750;49.050;9.250;2024-01-15T05:28:49;97660.50;;;2.16;83.24
5455;BME280;2750;49.050;9.250;2024-01-15T05:33:50;97669.47;;;2.03;83.41
5455;BME280;2750;49.050;9.250;2024-01-15T05:38:52;97665.91;;;2.60;82.10
5455;BME280;2750;49.050;9.250;2024-01-15T05:43:55;97657.13;;;2.67;81.55
5455;BME280;2750;49.050;9.250;2024-01-15T05:48:56;97653.06;;;2.86;79.95
5455;BME280;2750;49.050;9.250;2024-01-15T05:53:58;97652.72;;;3.20;80.33
5455;BME280;2750;49.050;9.250;2024-01-15T05:59:00;97651.41;;;3.33;79.23
5455;BME280;2750;49.050;9.250;2024-01-15T06:04:02;97640.94;;;3.37;79.70
5455;BME280;2750;49.050;9.250;2024-01-15T06:09:06;97646.31;;;3.55;79.15
5455;BME280;2750;49.050;9.250;2024-01-15T06:14:10;97647.88;;;3.35;78.95
5455;BME280;2750;49.050;9.250;2024-01-15T06:19:12;97654.78;;;3.33;78.20
5455;BME280;2750;49.050;9.250;2024-01-15T06:24:13;97651.72;;;2.76;79.71
5455;BME280;2750;49.050;9.250;2024-01-15T06:29:16;97646.50;;;2.79;80.75
5455;BME280;2750;49.050;9.250;2024-01-15T06:34:18;97638.16;;;2.97;80.01
5455;BME280;2750;49.050;9.250;2024-01-15T06:39:19;97646.47;;;3.04;79.06
5455;BME280;2750;49.050;9.250;2024-01-15T06:44:22;97639.47;;;2.59;80.61
5455;BME280;2750;49.050;9.250;2024-01-15T06:49:24;97639.16;;;2.68;81.01
5455;BME280;2750;49.050;9.250;2024-01-15T06:54:25;97624.28;;;2.79;81.19
5455;BME280;2750;49.050;9.250;2024-01-15T06:59:28;97604.25;;;2.66;81.24
5455;BME280;2750;49.050;9.250;2024-01-15T07:04:30;97605.72;;;2.73;81.18
5455;BME280;2750;49.050;9.250;2024-01-15T07:09:31;97604.97;;;2.94;80.40
5455;BME280;2750;49.050;9.250;2024-01-15T07:14:34;97633.63;;;3.52;78.97
5455;BME280;2750;49.050;9.250;2024-01-15T07:19:35;97634.03;;;3.63;77.94
5455;BME280;2750;49.050;9.250;2024-01-15T07:24:37;97635.53;;;3.68;76.81
5455;BME280;2750;49.050;9.250;2024-01-15T07:29:40;97639.34;;;3.80;77.83
5455;BME280;2750;49.050;9.250;2024-01-15T07:34:42;97640.81;;;4.09;77.32
5455;BME280;2750;49.050;9.250;2024-01-15T07:39:44;97650.47;;;4.02;76.40
5455;BME280;2750;49.050;9.250;2024-01-15T07:44:47;97648.88;;;4.21;76.59
5455;BME280;2750;49.050;9.250;2024-01-15T07:49:48;97654.28;;;4.36;76.18
5455;BME280;2750;49.050;9.250;2024-01-15T07:54:50;97653.41;;;4.77;74.90
5455;BME280;2750;49.050;9.250;2024-01-15T07:59:53;97653.25;;;4.80;74.75
5455;BME280;2750;49.050;9.250;2024-01-15T08:04:54;97635.59;;;4.72;74.27
5455;BME280;2750;49.050;9.250;2024-01-15T08:09:55;97640.69;;;4.74;74.43
5455;BME280;2750;49.050;9.250;2024-01-15T08:14:58;97652.06;;;4.48;74.06
5455;BME280;2750;49.050;9.250;2024-01-15T08:20:00;97638.94;;;4.12;74.14
5455;BME280;2750;49.050;9.250;2024-01-15T08:25:01;97642.69;;;4.25;75.10
5455;BME280;2750;49.050;9.250;2024-01-15T08:30:06;97641.66;;;4.09;75.23
5455;BME280;2750;49.050;9.250;2024-01-15T08:35:08;97645.25;;;4.25;75.06
5455;BME280;2750;49.050;9.250;2024-01-15T08:40:10;97645.09;;;4.08;75.09
5455;BME280;2750;49.050;9.250;2024-01-15T08:45:13;97635.50;;;4.13;74.47
5455;BME280;2750;49.050;9.250;2024-01-15T08:50:15;97637.41;;;4.08;75.20
5455;BME280;2750;49.050;9.250;2024-01-15T08:55:17;97630.63;;;4.27;75.01
5455;BME280;2750;49.050;9.250;2024-01-15T09:00:19;97627.31;;;4.04;75.93
5455;BME280;2750;49.050;9.250;2024-01-15T09:05:21;97632.97;;;4.54;74.62
5455;BME280;2750;49.050;9.250;2024-01-15T09:10:22;97625.75;;;4.42;74.58
5455;BME280;2750;49.050;9.250;2024-01-15T09:15:25;97625.53;;;4.68;73.63
5455;BME280;2750;49.050;9.250;2024-01-15T09:20:27;97614.78;;;4.38;74.70
5455;BME280;2750;49.050;9.250;2024-01-15T09:25:29;97613.59;;;4.05;74.96
5455;BME280;2750;49.050;9.250;2024-01-15T09:30:32;97620.63;;;3.78;75.73
5455;BME280;2750;49.050;9.250;2024-01-15T09:35:33;97609.06;;;3.90;76.19
5455;BME280;2750;49.050;9.250;2024-01-15T09:40:38;97600.00;;;3.59;78.11
5455;BME280;2750;49.050;9.250;2024-01-15T09:45:41;97608.81;;;3.52;78.55
5455;BME280;2750;49.050;9.250;2024-01-15T09:50:42;97599.31;;;3.76;77.08
5455;BME280;2750;49.050;9.250;2024-01-15T09:55:44;97593.06;;;4.05;75.93
5455;BME280;2750;49.050;9.250;2024-01-15T10:00:48;97584.66;;;3.79;76.39
5455;BME280;2750;49.050;9.250;2024-01-15T10:05:50;97579.59;;;3.78;76.67
5455;BME280;2750;49.050;9.250;2024-01-15T10:10:52;97578.63;;;4.02;76.53
5455;BME280;2750;49.050;9.250;2024-01-15T10:15:55;97572.97;;;4.14;75.93
5455;BME280;2750;49.050;9.250;2024-01-15T10:20:56;97581.28;;;3.79;77.56
5455;BME280;2750;49.050;9.250;2024-01-15T10:25:58;97561.34;;;3.85;77.80
5455;BME280;2750;49.050;9.250;2024-01-15T10:31:01;97552.38;;;3.96;78.68
5455;BME280;2750;49.050;9.250;2024-01-15T10:36:09;97551.34;;;4.21;77.18
5455;BME280;2750;49.050;9.250;2024-01-15T10:41:11;97540.41;;;4.16;76.81
5455;BME280;2750;49.050;9.250;2024-01-15T10:46:14;97537.56;;;4.22;78.24
5455;BME280;2750;49.050;9.250;2024-01-15T10:51:15;97529.25;;;4.17;77.27
5455;BME280;2750;49.050;9.250;2024-01-15T10:56:18;97530.91;;;4.39;77.61
5455;BME280;2750;49.050;9.250;2024-01-15T11:01:21;97533.03;;;4.29;79.58
5455;BME280;2750;49.050;9.250;2024-01-15T11:06:24;97529.47;;;3.91;82.65
5455;BME280;2750;49.050;9.250;2024-01-15T11:11:26;97522.44;;;3.96;84.90
5455;BME280;2750;49.050;9.250;2024-01-15T11:16:53;97518.25;;;3.94;87.03
5455;BME280;2750;49.050;9.250;2024-01-15T11:21:56;97510.81;;;4.08;87.32
5455;BME280;2750;49.050;9.250;2024-01-15T11:26:57;97516.50;;;3.74;88.66
5455;BME280;2750;49.050;9.250;2024-01-15T11:32:02;97507.03;;;3.96;88.26
5455;BME280;2750;49.050;9.250;2024-01-15T11:37:04;97509.72;;;3.93;88.68
5455;BME280;2750;49.050;9.250;2024-01-15T11:42:06;97509.59;;;3.96;89.54
5455;BME280;2750;49.050;9.250;2024-01-15T11:47:10;97513.19;;;3.92;89.27
5455;BME280;2750;49.050;9.250;2024-01-15T11:52:15;97507.00;;;3.76;88.93
5455;BME280;2750;49.050;9.250;2024-01-15T11:57:24;97498.31;;;4.00;89.17
5455;BME280;2750;49.050;9.250;2024-01-15T12:02:28;97505.28;;;3.76;90.26
5455;BME280;2750;49.050;9.250;2024-01-15T12:07:30;97512.56;;;3.65;91.14
5455;BME280;2750;49.050;9.250;2024-01-15T12:12:39;97511.38;;;3.74;91.47
5455;BME280;2750;49.050;9.250;2024-01-15T12:17:46;97505.19;;;3.58;90.98
5455;BME280;2750;49.050;9.250;2024-01-15T12:22:49;97500.72;;;2.96;93.91
5455;BME280;2750;49.050;9.250;2024-01-15T12:27:51;97496.72;;;3.12;94.45
5455;BME280;2750;49.050;9.250;2024-01-15T12:32:54;97502.69;;;3.34;93.32
5455;BME280;2750;49.050;9.250;2024-01-15T12:37:56;97503.09;;;3.02;95.13
5455;BME280;2750;49.050;9.250;2024-01-15T12:42:57;97498.84;;;2.78;95.97
5455;BME280;2750;49.050;9.250;2024-01-15T12:48:00;97501.13;;;2.85;96.04
5455;BME280;2750;49.050;9.250;2024-01-15T12:53:03;97505.41;;;2.85;95.93
5455;BME280;2750;49.050;9.250;2024-01-15T12:58:05;97512.50;;;2.55;96.96
5455;BME280;2750;49.050;9.250;2024-01-15T13:03:11;97504.41;;;2.66;96.55
5455;BME280;2750;49.050;9.250;2024-01-15T13:08:13;97511.53;;;2.58;96.84
5455;BME280;2750;49.050;9.250;2024-01-15T13:13:15;97511.53;;;2.58;96.16
5455;BME280;2750;49.050;9.250;2024-01-15T13:18:18;97532.34;;;2.49;97.38
5455;BME280;2750;49.050;9.250;2024-01-15T13:23:19;97546.78;;;2.50;98.06
5455;BME280;2750;49.050;9.250;2024-01-15T13:28:21;97549.63;;;2.67;97.92
5455;BME280;2750;49.050;9.250;2024-01-15T13:33:24;97549.81;;;2.37;97.85
5455;BME280;2750;49.050;9.250;2024-01-15T13:38:25;97559.00;;;2.91;96.49
5455;BME280;2750;49.050;9.250;2024-01-15T13:43:28;97563.09;;;2.72;96.60
5455;BME280;2750;49.050;9.250;2024-01-15T13:48:30;97563.22;;;2.44;96.11
5455;BME280;2750;49.050;9.250;2024-01-15T13:53:32;97582.75;;;2.71;96.43
5455;BME280;2750;49.050;9.250;2024-01-15T13:58:34;97585.66;;;2.61;95.89
5455;BME280;2750;49.050;9.250;2024-01-15T14:03:37;97594.13;;;2.63;96.14
5455;BME280;2750;49.050;9.250;2024-01-15T14:08:39;97589.84;;;2.38;94.80
5455;BME280;2750;49.050;9.250;2024-01-15T14:13:40;97602.00;;;2.32;95.73
5455;BME280;2750;49.050;9.250;2024-01-15T14:18:43;97615.53;;;2.35;94.93
5455;BME280;2750;49.050;9.250;2024-01-15T14:23:44;97619.38;;;2.49;94.42
5455;BME280;2750;49.050;9.250;2024-01-15T14:28:46;97611.47;;;2.55;93.87
5455;BME280;2750;49.050;9.250;2024-01-15T14:33:49;97623.56;;;2.50;94.13
5455;BME280;2750;49.050;9.250;2024-01-15T14:38:51;97603.13;;;2.74;92.99
5455;BME280;2750;49.050;9.250;2024-01-15T14:43:52;97627.19;;;2.69;92.54
5455;BME280;2750;49.050;9.250;2024-01-15T14:48:55;97631.97;;;2.53;93.79
5455;BME280;2750;49.050;9.250;2024-01-15T14:53:57;97650.97;;;2.48;93.29
5455;BME280;2750;49.050;9.250;2024-01-15T14:58:58;97649.97;;;2.52;93.05
5455;BME280;2750;49.050;9.250;2024-01-15T15:04:01;97666.13;;;2.78;92.34
5455;BME280;2750;49.050;9.250;2024-01-15T15:09:03;97667.09;;;2.76;91.79
5455;BME280;2750;49.050;9.250;2024-01-15T15:14:09;97679.38;;;2.91;90.72
5455;BME280;2750;49.050;9.250;2024-01-15T15:19:12;97689.28;;;3.00;90.25
5455;BME280;2750;49.050;9.250;2024-01-15T15:24:13;97702.69;;;3.07;89.07
5455;BME280;2750;49.050;9.250;2024-01-15T15:29:15;97694.72;;;3.16;88.67
5455;BME280;2750;49.050;9.250;2024-01-15T15:34:18;97714.72;;;2.80;89.51
5455;BME280;2750;49.050;9.250;2024-01-15T15:39:19;97711.78;;;2.66;89.93
5455;BME280;2750;49.050;9.250;2024-01-15T15:44:21;97706.03;;;2.84;89.83
5455;BME280;2750;49.050;9.250;2024-01-15T15:49:24;97732.56;;;2.83;89.09
5455;BME280;2750;49.050;9.250;2024-01-15T15:54:25;97734.72;;;2.69;88.50
5455;BME280;2750;49.050;9.250;2024-01-15T15:59:27;97733.16;;;2.91;88.29
5455;BME280;2750;49.050;9.250;2024-01-15T16:04:30;97739.72;;;2.98;87.79
5455;BME280;2750;49.050;9.250;2024-01-15T16:09:31;97769.38;;;3.05;87.29
5455;BME280;2750;49.050;9.250;2024-01-15T16:14:34;97759.63;;;2.90;87.78
5455;BME280;2750;49.050;9.250;2024-01-15T16:19:37;97773.69;;;3.03;87.28
5455;BME280;2750;49.050;9.250;2024-01-15T16:24:40;97786.13;;;2.89;86.68
5455;BME280;2750;49.050;9.250;2024-01-15T16:29:41;97788.72;;;2.87;87.93
5455;BME280;2750;49.050;9.250;2024-01-15T16:34:44;97784.75;;;2.79;88.58
5455;BME280;2750;49.050;9.250;2024-01-15T16:39:45;97803.06;;;2.93;87.54
5455;BME280;2750;49.050;9.250;2024-01-15T16:44:47;97814.75;;;3.02;87.83
5455;BME280;2750;49.050;9.250;2024-01-15T16:49:50;97817.00;;;2.84;87.86
5455;BME280;2750;49.050;9.250;2024-01-15T16:54:51;97820.50;;;2.82;88.45
5455;BME280;2750;49.050;9.250;2024-01-15T16:59:53;97831.13;;;2.70;88.17
5455;BME280;2750;49.050;9.250;2024-01-15T17:04:56;97831.94;;;2.98;87.51
5455;BME280;2750;49.050;9.250;2024-01-15T17:09:57;97840.31;;;2.49;87.91
5455;BME280;2750;49.050;9.250;2024-01-15T17:14:59;97848.53;;;2.59;87.23
5455;BME280;2750;49.050;9.250;2024-01-15T17:20:02;97846.59;;;2.67;87.73
5455;BME280;2750;49.050;9.250;2024-01-15T17:25:04;97854.78;;;2.78;87.75
5455;BME280;2750;49.050;9.250;2024-01-15T17:30:07;97863.06;;;2.86;87.10
5455;BME280;2750;49.050;9.250;2024-01-15T17:35:10;97869.69;;;2.92;87.17
5455;BME280;2750;49.050;9.250;2024-01-15T17:40:12;97884.38;;;2.86;87.44
5455;BME280;2750;49.050;9.250;2024-01-15T17:45:13;97897.13;;;2.88;86.90
5455;BME280;2750;49.050;9.250;2024-01-15T17:50:16;97891.75;;;2.97;85.72
5455;BME280;2750;49.050;9.250;2024-01-15T17:55:19;97887.28;;;2.76;86.64
5455;BME280;2750;49.050;9.250;2024-01-15T18:00:20;97900.63;;;2.85;86.19
5455;BME280;2750;49.050;9.250;2024-01-15T18:05:23;97910.16;;;2.53;87.35
5455;BME280;2750;49.050;9.250;2024-01-15T18:10:25;97902.94;;;2.36;87.46
5455;BME280;2750;49.050;9.250;2024-01-15T18:15:27;97920.31;;;2.56;87.19
5455;BME280;2750;49.050;9.250;2024-01-15T18:20:30;97927.97;;;2.56;86.35
5455;BME280;2750;49.050;9.250;2024-01-15T18:25:32;97934.16;;;2.49;86.67
5455;BME280;2750;49.050;9.250;2024-01-15T18:30:33;97918.09;;;2.44;86.00
5455;BME280;2750;49.050;9.250;2024-01-15T18:35:37;97921.59;;;2.69;85.10
5455;BME280;2750;49.050;9.250;2024-01-15T18:40:39;97917.63;;;2.60;85.88
5455;BME280;2750;49.050;9.250;2024-01-15T18:45:41;97933.28;;;2.79;85.76
5455;BME280;2750;49.050;9.250;2024-01-15T18:50:47;97933.69;;;2.34;85.42
5455;BME280;2750;49.050;9.250;2024-01-15T18:55:49;97936.78;;;2.46;85.57
5455;BME280;2750;49.050;9.250;2024-01-15T19:00:50;97939.88;;;2.27;85.95
5455;BME280;2750;49.050;9.250;2024-01-15T19:05:53;97930.44;;;2.29;85.58
5455;BME280;2750;49.050;9.250;2024-01-15T19:10:55;97939.84;;;2.58;84.92
5455;BME280;2750;49.050;9.250;2024-01-15T19:15:57;97953.28;;;2.35;84.64
5455;BME280;2750;49.050;9.250;2024-01-15T19:21:00;97960.97;;;2.65;84.32
5455;BME280;2750;49.050;9.250;2024-01-15T19:26:02;97971.16;;;2.68;83.33
5455;BME280;2750;49.050;9.250;2024-01-15T19:31:04;97975.13;;;2.49;83.19
5455;BME280;2750;49.050;9.250;2024-01-15T19:36:08;97971.22;;;2.34;83.17
5455;BME280;2750;49.050;9.250;2024-01-15T19:41:10;97980.22;;;2.49;82.71
5455;BME280;2750;49.050;9.250;2024-01-15T19:46:11;97975.78;;;2.24;82.39
5455;BME280;2750;49.050;9.250;2024-01-15T19:51:14;97976.19;;;2.40;82.34
5455;BME280;2750;49.050;9.250;2024-01-15T19:56:16;98001.16;;;2.63;81.57
5455;BME280;2750;49.050;9.250;2024-01-15T20:01:17;98011.38;;;2.64;82.01
5455;BME280;2750;49.050;9.250;2024-01-15T20:06:20;98007.47;;;2.50;82.75
5455;BME280;2750;49.050;9.250;2024-01-15T20:11:23;98022.84;;;2.50;80.94
5455;BME280;2750;49.050;9.250;2024-01-15T20:16:25;98032.41;;;2.43;81.95
5455;BME280;2750;49.050;9.250;2024-01-15T20:21:28;98044.47;;;2.39;82.34
5455;BME280;2750;49.050;9.250;2024-01-15T20:26:29;98041.50;;;2.55;82.44
5455;BME280;2750;49.050;9.250;2024-01-15T20:31:31;98061.03;;;2.57;82.43
5455;BME280;2750;49.050;9.250;2024-01-15T20:36:34;98065.91;;;2.66;80.59
5455;BME280;2750;49.050;9.250;2024-01-15T20:41:35;98059.88;;;2.69;80.89
5455;BME280;2750;49.050;9.250;2024-01-15T20:46:37;98061.72;;;2.64;80.57
5455;BME280;2750;49.050;9.250;2024-01-15T20:51:39;98060.81;;;2.66;80.14
5455;BME280;2750;49.050;9.250;2024-01-15T20:56:41;98074.22;;;2.44;80.81
5455;BME280;2750;49.050;9.250;2024-01-15T21:01:42;98064.00;;;2.42;80.03
5455;BME280;2750;49.050;9.250;2024-01-15T21:06:45;98077.09;;;2.64;79.22
5455;BME280;2750;49.050;9.250;2024-01-15T21:11:47;98068.81;;;2.54;79.78
5455;BME280;2750;49.050;9.250;2024-01-15T21:16:48;98069.41;;;2.64;80.30
5455;BME280;2750;49.050;9.250;2024-01-15T21:21:51;98068.47;;;2.66;80.12
5455;BME280;2750;49.050;9.250;2024-01-15T21:26:53;98088.50;;;2.52;80.86
5455;BME280;2750;49.050;9.250;2024-01-15T21:31:57;98078.47;;;2.43;81.66
5455;BME280;2750;49.050;9.250;2024-01-15T21:36:59;98081.31;;;2.32;80.87
5455;BME280;2750;49.050;9.250;2024-01-15T21:42:01;98093.16;;;2.36;80.39
5455;BME280;2750;49.050;9.250;2024-01-15T21:47:03;98096.81;;;2.26;79.87
5455;BME280;2750;49.050;9.250;2024-01-15T21:52:07;98102.91;;;2.55;80.57
5455;BME280;2750;49.050;9.250;2024-01-15T21:57:09;98103.66;;;2.60;80.07
5455;BME280;2750;49.050;9.250;2024-01-15T22:02:10;98110.81;;;2.47;80.54
5455;BME280;2750;49.050;9.250;2024-01-15T22:07:14;98118.09;;;2.28;81.27
5455;BME280;2750;49.050;9.250;2024-01-15T22:12:15;98111.06;;;2.36;81.69
5455;BME280;2750;49.050;9.250;2024-01-15T22:17:16;98123.88;;;2.36;81.68
5455;BME280;2750;49.050;9.250;2024-01-15T22:22:19;98125.47;;;2.40;81.43
5455;BME280;2750;49.050;9.250;2024-01-15T22:27:21;98118.75;;;2.36;80.78
5455;BME280;2750;49.050;9.250;2024-01-15T22:32:22;98138.34;;;2.02;81.32
5455;BME280;2750;49.050;9.250;2024-01-15T22:37:25;98149.00;;;2.19;81.58
5455;BME280;2750;49.050;9.250;2024-01-15T22:42:27;98155.16;;;1.74;81.97
5455;BME280;2750;49.050;9.250;2024-01-15T22:47:28;98161.88;;;1.79;82.04
5455;BME280;2750;49.050;9.250;2024-01-15T22:52:31;98168.38;;;1.54;82.14
5455;BME280;2750;49.050;9.250;2024-01-15T22:57:33;98171.16;;;1.42;83.20
5455;BME280;2750;49.050;9.250;2024-01-15T23:02:35;98174.38;;;1.53;82.96
5455;BME280;2750;49.050;9.250;2024-01-15T23:07:38;98175.41;;;1.44;83.00
5455;BME280;2750;49.050;9.250;2024-01-15T23:12:40;98190.56;;;1.52;81.78
5455;BME280;2750;49.050;9.250;2024-01-15T23:17:42;98199.66;;;1.65;82.03
5455;BME280;2750;49.050;9.250;2024-01-15T23:22:46;98210.66;;;1.69;81.47
5455;BME280;2750;49.050;9.250;2024-01-15T23:27:48;98209.69;;;1.74;81.23
5455;BME280;2750;49.050;9.250;2024-01-15T23:32:49;98218.03;;;1.84;81.40
5455;BME280;2750;49.050;9.250;2024-01-15T23:37:53;98210.94;;;1.57;82.08
5455;BME280;2750;49.050;9.250;2024-01-15T23:42:55;98207.75;;;1.46;82.25
5455;BME280;2750;49.050;9.250;2024-01-15T23:47:56;98218.84;;;1.43;82.49
5455;BME280;2750;49.050;9.250;2024-01-15T23:52:59;98222.94;;;1.53;81.82
5455;BME280;2750;49.050;9.250;2024-01-15T23:58:00;98229.56;;;1.62;81.99
